Gautier, Mississippi
Current Conditions -  °F | °C
As of 9:53 PM on Thursday 18 Dec 2014 (Local Time) from KPQL Reporting Station
Overcast Overcast  
Wind Chill: 58°   Ceiling: 7500
Heat Index: 58°   Visibility: 10mi
Dew Point: 46°   Wind: 3mph
Humidity: 65%   Direction: 40°NE
Pressure: 30.16"   Gusts: NA
Location:  30.39°N, 88.65°W
Report Text: KPQL 190353Z AUTO 04003KT 10SM OVC075 14/08 A3016 RMK AO2 SLP214 T01440078 TSNO
Loading
Personal Weather Stations






























Interactive Weather Map New forecast layout! Learn more

10-Day Weather Forecast

Advertisements
Track Severe Weather on mobile